createdAt,value
2023-05-21T00:01:55.739Z,13.79
2023-05-21T00:06:55.480Z,13.74
2023-05-21T00:11:55.450Z,13.71
2023-05-21T00:16:55.414Z,13.67
2023-05-21T00:21:55.877Z,13.56
2023-05-21T00:26:55.477Z,13.59
2023-05-21T00:31:56.028Z,13.62
2023-05-21T00:36:55.762Z,13.66
2023-05-21T00:41:56.758Z,13.64
2023-05-21T00:46:57.340Z,13.68
2023-05-21T00:51:55.719Z,13.71
2023-05-21T00:56:56.068Z,13.68
2023-05-21T01:01:56.606Z,13.72
2023-05-21T01:06:56.246Z,13.65
2023-05-21T01:11:55.735Z,13.64
2023-05-21T01:16:56.273Z,13.58
2023-05-21T01:21:56.637Z,13.59
2023-05-21T01:26:55.477Z,13.6
2023-05-21T01:32:03.296Z,13.55
2023-05-21T01:36:59.499Z,13.47
2023-05-21T01:41:57.343Z,13.48
2023-05-21T01:46:56.547Z,13.38
2023-05-21T01:51:55.717Z,13.32
2023-05-21T01:56:55.644Z,13.31
2023-05-21T02:01:55.646Z,13.25
2023-05-21T02:06:55.558Z,13.17
2023-05-21T02:11:55.530Z,13.12
2023-05-21T02:16:56.796Z,13.03
2023-05-21T02:21:55.581Z,12.86
2023-05-21T02:26:55.678Z,12.65
2023-05-21T02:31:55.581Z,12.43
2023-05-21T02:36:56.058Z,12.24
2023-05-21T02:41:55.556Z,12.04
2023-05-21T02:46:55.564Z,11.83
2023-05-21T02:51:55.575Z,11.64
2023-05-21T02:56:55.617Z,11.48
2023-05-21T03:01:55.599Z,11.39
2023-05-21T03:06:56.460Z,11.28
2023-05-21T03:11:55.628Z,11.17
2023-05-21T03:16:55.645Z,11.09
2023-05-21T03:21:56.407Z,11.06
2023-05-21T03:26:55.628Z,11.01
2023-05-21T03:31:55.711Z,10.9
2023-05-21T03:36:55.655Z,10.85
2023-05-21T03:41:55.782Z,10.86
2023-05-21T03:46:55.677Z,10.91
2023-05-21T03:51:55.888Z,10.91
2023-05-21T03:56:55.650Z,10.94
2023-05-21T04:01:55.725Z,11.02
2023-05-21T04:06:55.699Z,11.07
2023-05-21T04:11:55.852Z,11.15
2023-05-21T04:16:56.670Z,11.26
2023-05-21T04:21:56.094Z,11.35
2023-05-21T04:26:55.993Z,11.48
2023-05-21T04:31:55.677Z,11.6
2023-05-21T04:36:56.690Z,11.7
2023-05-21T04:41:56.476Z,11.79
2023-05-21T04:46:57.347Z,11.92
2023-05-21T04:51:55.728Z,11.99
2023-05-21T04:56:55.839Z,12.09
2023-05-21T05:01:55.692Z,12.23
2023-05-21T05:06:55.776Z,12.32
2023-05-21T05:11:55.791Z,12.5
2023-05-21T05:16:59.905Z,12.64
2023-05-21T05:21:55.782Z,12.8
2023-05-21T05:26:55.789Z,12.97
2023-05-21T05:31:55.735Z,13.13
2023-05-21T05:36:57.180Z,13.31
2023-05-21T05:41:55.747Z,13.37
2023-05-21T05:46:55.966Z,13.57
2023-05-21T05:51:56.603Z,13.7
2023-05-21T05:56:55.873Z,13.78
2023-05-21T06:01:55.752Z,13.98
2023-05-21T06:06:57.392Z,14.27
2023-05-21T06:11:55.770Z,14.33
2023-05-21T06:16:55.754Z,14.55
2023-05-21T06:21:55.934Z,14.73
2023-05-21T06:26:55.978Z,14.93
2023-05-21T06:31:55.865Z,15.13
2023-05-21T06:36:55.808Z,15.2
2023-05-21T06:41:55.793Z,15.59
2023-05-21T06:46:55.818Z,16.26
2023-05-21T06:51:55.833Z,17.14
2023-05-21T06:56:55.842Z,17.79
2023-05-21T07:01:55.891Z,18.42
2023-05-21T07:06:56.508Z,18.63
2023-05-21T07:11:56.098Z,19.07
2023-05-21T07:16:55.877Z,19.61
2023-05-21T07:21:56.540Z,20.67
2023-05-21T07:26:55.885Z,20.27
2023-05-21T07:31:55.855Z,19.79
2023-05-21T07:36:55.808Z,19.67
2023-05-21T07:41:55.803Z,20.21
2023-05-21T07:46:55.813Z,20.31
2023-05-21T07:51:55.886Z,21.37
2023-05-21T07:56:56.305Z,20.96
2023-05-21T08:01:55.874Z,20.84
2023-05-21T08:06:56.368Z,20.96
2023-05-21T08:11:55.901Z,20.54
2023-05-21T08:16:55.916Z,19.83
2023-05-21T08:21:56.053Z,19.54
2023-05-21T08:26:55.943Z,19.72
2023-05-21T08:31:56.312Z,19.91
2023-05-21T08:36:55.842Z,19.8
2023-05-21T08:42:00.487Z,20.42
2023-05-21T08:46:57.836Z,20.72
2023-05-21T08:51:57.006Z,21.65
2023-05-21T08:56:57.051Z,22.65
2023-05-21T09:01:57.466Z,23.34
2023-05-21T09:06:57.770Z,23.89
2023-05-21T09:11:55.933Z,24.73
2023-05-21T09:16:56.009Z,25.08
2023-05-21T09:21:56.295Z,25.18
2023-05-21T09:26:55.976Z,25.68
2023-05-21T09:31:56.137Z,25.61
2023-05-21T09:37:01.546Z,27.21
2023-05-21T09:41:55.967Z,27.4
2023-05-21T09:47:00.526Z,27.84
2023-05-21T09:51:58.531Z,27.16
2023-05-21T09:56:56.298Z,27.12
2023-05-21T10:01:57.961Z,26.73
2023-05-21T10:06:56.494Z,26.03
2023-05-21T10:11:58.225Z,26.76
2023-05-21T10:16:56.380Z,26.77
2023-05-21T10:21:57.102Z,26.05
2023-05-21T10:26:56.273Z,25.83
2023-05-21T10:31:56.519Z,25.79
2023-05-21T10:36:57.088Z,25.97
2023-05-21T10:42:00.715Z,26.13
2023-05-21T10:47:04.512Z,25.6
2023-05-21T10:51:58.569Z,24.73
2023-05-21T10:57:03.130Z,25.54
2023-05-21T11:01:57.014Z,25.6
2023-05-21T11:06:56.326Z,26.42
2023-05-21T11:12:00.883Z,27.06
2023-05-21T11:16:56.948Z,27.8
2023-05-21T11:21:59.073Z,27.56
2023-05-21T11:27:08.698Z,27.89
2023-05-21T11:32:05.669Z,28.49
2023-05-21T11:37:06.019Z,28.43
2023-05-21T11:42:04.075Z,27.25
2023-05-21T11:46:56.192Z,26.18
2023-05-21T11:51:56.538Z,26.71
2023-05-21T11:56:56.557Z,26.75
2023-05-21T12:01:56.103Z,27.74
2023-05-21T12:06:58.390Z,27.42
2023-05-21T12:11:57.056Z,27.69
2023-05-21T12:16:56.186Z,28.14
2023-05-21T12:21:56.293Z,28.61
2023-05-21T12:26:59.242Z,27.92
2023-05-21T12:31:56.339Z,27.37
2023-05-21T12:36:56.142Z,27.92
2023-05-21T12:41:57.341Z,27.88
2023-05-21T12:46:56.202Z,28.08
2023-05-21T12:51:56.167Z,28.48
2023-05-21T12:56:56.725Z,28.59
2023-05-21T13:01:56.902Z,27.95
2023-05-21T13:06:56.121Z,28.11
2023-05-21T13:11:56.154Z,27.36
2023-05-21T13:16:56.279Z,27.66
2023-05-21T13:21:56.524Z,27.63
2023-05-21T13:26:56.255Z,27.87
2023-05-21T13:31:56.295Z,27.62
2023-05-21T13:36:56.209Z,27.62
2023-05-21T13:41:56.224Z,27.75
2023-05-21T13:46:56.318Z,27.57
2023-05-21T13:51:57.964Z,27.23
2023-05-21T13:56:56.479Z,27.37
2023-05-21T14:01:57.955Z,27.43
2023-05-21T14:06:56.655Z,27.5
2023-05-21T14:11:57.052Z,26.67
2023-05-21T14:16:56.336Z,26.11
2023-05-21T14:21:56.621Z,25.51
2023-05-21T14:26:56.278Z,25.51
2023-05-21T14:31:56.366Z,26.09
2023-05-21T14:36:56.301Z,26.18
2023-05-21T14:41:56.324Z,26.71
2023-05-21T14:46:56.330Z,27.08
2023-05-21T14:51:56.242Z,27.47
2023-05-21T14:56:56.249Z,27.68
2023-05-21T15:01:56.647Z,27.85
2023-05-21T15:06:56.240Z,27.81
2023-05-21T15:11:56.304Z,28.03
2023-05-21T15:16:56.333Z,27.62
2023-05-21T15:21:56.306Z,27.36
2023-05-21T15:26:56.327Z,26.52
2023-05-21T15:31:56.431Z,26.37
2023-05-21T15:36:57.825Z,26.01
2023-05-21T15:41:57.027Z,26.68
2023-05-21T15:46:56.403Z,26.98
2023-05-21T15:51:57.818Z,27.6
2023-05-21T15:56:56.337Z,27.96
2023-05-21T16:01:56.363Z,27.54
2023-05-21T16:06:56.345Z,27.4
2023-05-21T16:11:56.381Z,27.6
2023-05-21T16:16:56.505Z,27.54
2023-05-21T16:21:56.416Z,27.05
2023-05-21T16:26:56.388Z,27.78
2023-05-21T16:31:56.386Z,27.65
2023-05-21T16:36:56.550Z,27.91
2023-05-21T16:41:59.477Z,27.92
2023-05-21T16:46:56.449Z,28.27
2023-05-21T16:51:56.430Z,27.91
2023-05-21T16:56:56.543Z,27.78
2023-05-21T17:01:56.609Z,28.32
2023-05-21T17:06:56.508Z,27.45
2023-05-21T17:11:56.531Z,26.47
2023-05-21T17:16:56.451Z,26.26
2023-05-21T17:21:58.099Z,26.29
2023-05-21T17:26:56.608Z,25.91
2023-05-21T17:31:56.656Z,25.32
2023-05-21T17:36:57.561Z,24.83
2023-05-21T17:41:56.508Z,24.73
2023-05-21T17:46:56.652Z,24.86
2023-05-21T17:51:57.130Z,24.5
2023-05-21T17:56:56.511Z,24.18
2023-05-21T18:01:57.686Z,23.74
2023-05-21T18:06:56.526Z,23.35
2023-05-21T18:11:57.903Z,23.2
2023-05-21T18:16:56.731Z,22.97
2023-05-21T18:21:56.593Z,22.77
2023-05-21T18:26:56.511Z,22.54
2023-05-21T18:31:56.641Z,22.32
2023-05-21T18:36:58.617Z,22.1
2023-05-21T18:46:57.601Z,21.72
2023-05-21T18:51:56.596Z,21.62
2023-05-21T18:56:59.512Z,21.42
2023-05-21T19:01:56.622Z,21.13
2023-05-21T19:06:56.517Z,20.93
2023-05-21T19:11:57.187Z,20.72
2023-05-21T19:16:56.599Z,20.49
2023-05-21T19:21:56.704Z,20.34
2023-05-21T19:26:56.624Z,20.18
2023-05-21T19:31:57.234Z,20
2023-05-21T19:36:56.594Z,19.85
2023-05-21T19:41:56.631Z,19.74
2023-05-21T19:46:56.628Z,19.62
2023-05-21T19:51:56.763Z,19.49
2023-05-21T19:56:56.757Z,19.39
2023-05-21T20:01:56.773Z,19.26
2023-05-21T20:06:56.691Z,19.13
2023-05-21T20:11:56.984Z,18.98
2023-05-21T20:16:58.377Z,18.77
2023-05-21T20:21:56.672Z,18.63
2023-05-21T20:26:56.632Z,18.68
2023-05-21T20:31:56.660Z,18.63
2023-05-21T20:36:57.825Z,18.55
2023-05-21T20:41:58.017Z,18.46
2023-05-21T20:46:57.469Z,18.34
2023-05-21T20:51:56.709Z,18.25
2023-05-21T20:56:58.890Z,18.15
2023-05-21T21:01:57.140Z,18.01
2023-05-21T21:06:56.959Z,17.94
2023-05-21T21:11:56.704Z,17.84
2023-05-21T21:16:56.789Z,17.7
2023-05-21T21:21:56.787Z,17.59
2023-05-21T21:26:56.727Z,17.61
2023-05-21T21:31:56.767Z,17.63
2023-05-21T21:36:57.322Z,17.66
2023-05-21T21:41:56.699Z,17.73
2023-05-21T21:46:56.729Z,17.79
2023-05-21T21:51:57.674Z,17.87
2023-05-21T21:56:56.725Z,17.81
2023-05-21T22:01:56.746Z,17.83
2023-05-21T22:06:57.205Z,17.79
2023-05-21T22:11:57.590Z,17.72
2023-05-21T22:16:57.022Z,17.64
2023-05-21T22:21:59.778Z,17.57
2023-05-21T22:26:56.745Z,17.52
2023-05-21T22:31:56.753Z,17.49
2023-05-21T22:36:56.758Z,17.49
2023-05-21T22:41:57.038Z,17.53
2023-05-21T22:47:00.152Z,17.5
2023-05-21T22:51:59.205Z,17.5
2023-05-21T22:56:56.790Z,17.47
2023-05-21T23:01:56.987Z,17.36
2023-05-21T23:06:56.833Z,17.21
2023-05-21T23:11:56.834Z,17.09
2023-05-21T23:17:02.024Z,17.01
2023-05-21T23:21:56.838Z,16.94
2023-05-21T23:27:01.647Z,16.85
2023-05-21T23:31:56.911Z,16.81
2023-05-21T23:36:58.745Z,16.76
2023-05-21T23:41:57.013Z,16.72
2023-05-21T23:46:56.834Z,16.67
2023-05-21T23:51:57.044Z,16.63
2023-05-21T23:56:56.874Z,16.59
